sensor_id;sensor_type;location;lat;lon;timestamp;P1;durP1;ratioP1;P2;durP2;ratioP2
21786;SDS011;11055;50.870;4.316;2023-01-28T00:02:01;15.15;;;12.27;;
21786;SDS011;11055;50.870;4.316;2023-01-28T00:04:27;13.77;;;12.10;;
21786;SDS011;11055;50.870;4.316;2023-01-28T00:06:53;15.27;;;12.10;;
21786;SDS011;11055;50.870;4.316;2023-01-28T00:09:18;15.05;;;12.30;;
21786;SDS011;11055;50.870;4.316;2023-01-28T00:11:44;16.08;;;12.77;;
21786;SDS011;11055;50.870;4.316;2023-01-28T00:14:10;13.63;;;11.02;;
21786;SDS011;11055;50.870;4.316;2023-01-28T00:16:36;14.38;;;12.52;;
21786;SDS011;11055;50.870;4.316;2023-01-28T00:19:02;12.95;;;11.57;;
21786;SDS011;11055;50.870;4.316;2023-01-28T00:21:29;13.75;;;11.85;;
21786;SDS011;11055;50.870;4.316;2023-01-28T00:23:55;13.45;;;11.93;;
21786;SDS011;11055;50.870;4.316;2023-01-28T00:26:21;13.55;;;11.45;;
21786;SDS011;11055;50.870;4.316;2023-01-28T00:28:47;14.18;;;12.68;;
21786;SDS011;11055;50.870;4.316;2023-01-28T00:31:14;13.35;;;11.88;;
21786;SDS011;11055;50.870;4.316;2023-01-28T00:33:42;14.02;;;11.77;;
21786;SDS011;11055;50.870;4.316;2023-01-28T00:36:09;13.52;;;11.98;;
21786;SDS011;11055;50.870;4.316;2023-01-28T00:38:35;12.98;;;11.57;;
21786;SDS011;11055;50.870;4.316;2023-01-28T00:41:07;15.80;;;12.15;;
21786;SDS011;11055;50.870;4.316;2023-01-28T00:43:38;11.68;;;10.48;;
21786;SDS011;11055;50.870;4.316;2023-01-28T00:46:05;12.63;;;11.20;;
21786;SDS011;11055;50.870;4.316;2023-01-28T00:48:33;13.40;;;11.98;;
21786;SDS011;11055;50.870;4.316;2023-01-28T00:50:59;12.02;;;10.73;;
21786;SDS011;11055;50.870;4.316;2023-01-28T00:53:24;11.77;;;10.57;;
21786;SDS011;11055;50.870;4.316;2023-01-28T00:55:50;12.55;;;10.88;;
21786;SDS011;11055;50.870;4.316;2023-01-28T00:58:16;12.63;;;11.30;;
21786;SDS011;11055;50.870;4.316;2023-01-28T01:00:43;13.30;;;11.07;;
21786;SDS011;11055;50.870;4.316;2023-01-28T01:03:08;13.90;;;11.05;;
21786;SDS011;11055;50.870;4.316;2023-01-28T01:05:34;12.40;;;10.88;;
21786;SDS011;11055;50.870;4.316;2023-01-28T01:08:00;14.50;;;11.93;;
21786;SDS011;11055;50.870;4.316;2023-01-28T01:10:26;11.93;;;10.77;;
21786;SDS011;11055;50.870;4.316;2023-01-28T01:12:51;12.73;;;11.43;;
21786;SDS011;11055;50.870;4.316;2023-01-28T01:15:17;14.40;;;12.40;;
21786;SDS011;11055;50.870;4.316;2023-01-28T01:17:45;13.82;;;11.82;;
21786;SDS011;11055;50.870;4.316;2023-01-28T01:20:14;13.95;;;12.43;;
21786;SDS011;11055;50.870;4.316;2023-01-28T01:22:43;15.50;;;13.18;;
21786;SDS011;11055;50.870;4.316;2023-01-28T01:25:09;15.05;;;12.77;;
21786;SDS011;11055;50.870;4.316;2023-01-28T01:27:37;13.70;;;12.27;;
21786;SDS011;11055;50.870;4.316;2023-01-28T01:30:02;14.57;;;13.02;;
21786;SDS011;11055;50.870;4.316;2023-01-28T01:32:29;15.55;;;12.63;;
21786;SDS011;11055;50.870;4.316;2023-01-28T01:34:56;15.10;;;12.82;;
21786;SDS011;11055;50.870;4.316;2023-01-28T01:37:22;14.75;;;12.18;;
21786;SDS011;11055;50.870;4.316;2023-01-28T01:39:48;13.65;;;12.10;;
21786;SDS011;11055;50.870;4.316;2023-01-28T01:42:13;13.65;;;12.15;;
21786;SDS011;11055;50.870;4.316;2023-01-28T01:47:32;15.38;;;12.43;;
21786;SDS011;11055;50.870;4.316;2023-01-28T01:53:13;14.25;;;12.75;;
21786;SDS011;11055;50.870;4.316;2023-01-28T01:55:42;14.18;;;12.02;;
21786;SDS011;11055;50.870;4.316;2023-01-28T01:58:12;15.80;;;11.93;;
21786;SDS011;11055;50.870;4.316;2023-01-28T02:00:41;13.85;;;11.88;;
21786;SDS011;11055;50.870;4.316;2023-01-28T02:03:07;14.93;;;12.55;;
21786;SDS011;11055;50.870;4.316;2023-01-28T02:05:34;15.05;;;12.55;;
21786;SDS011;11055;50.870;4.316;2023-01-28T02:08:01;14.80;;;12.18;;
21786;SDS011;11055;50.870;4.316;2023-01-28T02:10:46;15.55;;;12.38;;
21786;SDS011;11055;50.870;4.316;2023-01-28T02:15:43;14.25;;;12.35;;
21786;SDS011;11055;50.870;4.316;2023-01-28T02:18:10;14.25;;;11.73;;
21786;SDS011;11055;50.870;4.316;2023-01-28T02:34:40;16.35;;;12.18;;
21786;SDS011;11055;50.870;4.316;2023-01-28T02:37:15;15.10;;;12.68;;
21786;SDS011;11055;50.870;4.316;2023-01-28T02:39:50;15.82;;;13.23;;
21786;SDS011;11055;50.870;4.316;2023-01-28T02:42:24;15.93;;;12.95;;
21786;SDS011;11055;50.870;4.316;2023-01-28T02:44:53;16.23;;;14.18;;
21786;SDS011;11055;50.870;4.316;2023-01-28T02:47:19;14.60;;;12.52;;
21786;SDS011;11055;50.870;4.316;2023-01-28T02:50:25;13.80;;;11.75;;
21786;SDS011;11055;50.870;4.316;2023-01-28T02:53:07;15.73;;;13.25;;
21786;SDS011;11055;50.870;4.316;2023-01-28T02:58:44;15.30;;;12.48;;
21786;SDS011;11055;50.870;4.316;2023-01-28T03:03:59;18.05;;;13.65;;
21786;SDS011;11055;50.870;4.316;2023-01-28T03:06:43;16.63;;;13.60;;
21786;SDS011;11055;50.870;4.316;2023-01-28T03:09:13;16.92;;;13.73;;
21786;SDS011;11055;50.870;4.316;2023-01-28T03:12:10;16.45;;;13.38;;
21786;SDS011;11055;50.870;4.316;2023-01-28T03:15:03;17.23;;;13.40;;
21786;SDS011;11055;50.870;4.316;2023-01-28T03:18:06;16.52;;;12.90;;
21786;SDS011;11055;50.870;4.316;2023-01-28T03:26:31;16.40;;;13.27;;
21786;SDS011;11055;50.870;4.316;2023-01-28T03:29:20;17.77;;;14.02;;
21786;SDS011;11055;50.870;4.316;2023-01-28T03:32:08;17.38;;;13.82;;
21786;SDS011;11055;50.870;4.316;2023-01-28T03:34:53;19.38;;;14.52;;
21786;SDS011;11055;50.870;4.316;2023-01-28T03:37:37;18.92;;;15.02;;
21786;SDS011;11055;50.870;4.316;2023-01-28T03:40:04;18.65;;;14.73;;
21786;SDS011;11055;50.870;4.316;2023-01-28T03:42:31;18.60;;;14.45;;
21786;SDS011;11055;50.870;4.316;2023-01-28T03:44:57;18.42;;;14.50;;
21786;SDS011;11055;50.870;4.316;2023-01-28T03:47:27;18.48;;;14.70;;
21786;SDS011;11055;50.870;4.316;2023-01-28T03:49:54;17.38;;;14.52;;
21786;SDS011;11055;50.870;4.316;2023-01-28T03:52:25;16.77;;;13.85;;
21786;SDS011;11055;50.870;4.316;2023-01-28T03:54:54;18.58;;;14.45;;
21786;SDS011;11055;50.870;4.316;2023-01-28T03:57:24;16.98;;;14.13;;
21786;SDS011;11055;50.870;4.316;2023-01-28T03:59:51;17.73;;;14.52;;
21786;SDS011;11055;50.870;4.316;2023-01-28T04:02:17;17.95;;;13.85;;
21786;SDS011;11055;50.870;4.316;2023-01-28T04:04:45;18.35;;;14.43;;
21786;SDS011;11055;50.870;4.316;2023-01-28T04:07:11;19.42;;;15.23;;
21786;SDS011;11055;50.870;4.316;2023-01-28T04:09:40;17.38;;;13.85;;
21786;SDS011;11055;50.870;4.316;2023-01-28T04:12:07;17.98;;;14.20;;
21786;SDS011;11055;50.870;4.316;2023-01-28T04:14:33;16.42;;;13.13;;
21786;SDS011;11055;50.870;4.316;2023-01-28T04:16:59;17.85;;;14.43;;
21786;SDS011;11055;50.870;4.316;2023-01-28T04:19:25;16.70;;;13.15;;
21786;SDS011;11055;50.870;4.316;2023-01-28T04:21:51;17.63;;;13.82;;
21786;SDS011;11055;50.870;4.316;2023-01-28T04:24:21;20.70;;;14.02;;
21786;SDS011;11055;50.870;4.316;2023-01-28T04:26:47;18.45;;;13.82;;
21786;SDS011;11055;50.870;4.316;2023-01-28T04:29:13;16.50;;;13.98;;
21786;SDS011;11055;50.870;4.316;2023-01-28T04:31:39;17.20;;;13.90;;
21786;SDS011;11055;50.870;4.316;2023-01-28T04:34:04;17.95;;;13.68;;
21786;SDS011;11055;50.870;4.316;2023-01-28T04:36:30;17.25;;;13.75;;
21786;SDS011;11055;50.870;4.316;2023-01-28T04:38:56;16.77;;;13.48;;
21786;SDS011;11055;50.870;4.316;2023-01-28T04:41:22;18.92;;;13.25;;
21786;SDS011;11055;50.870;4.316;2023-01-28T04:43:47;17.30;;;13.85;;
21786;SDS011;11055;50.870;4.316;2023-01-28T04:46:14;17.05;;;13.63;;
21786;SDS011;11055;50.870;4.316;2023-01-28T04:48:40;17.85;;;14.30;;
21786;SDS011;11055;50.870;4.316;2023-01-28T04:51:06;16.92;;;13.05;;
21786;SDS011;11055;50.870;4.316;2023-01-28T04:53:32;20.52;;;14.32;;
21786;SDS011;11055;50.870;4.316;2023-01-28T04:55:58;15.75;;;12.43;;
21786;SDS011;11055;50.870;4.316;2023-01-28T04:58:24;15.02;;;12.27;;
21786;SDS011;11055;50.870;4.316;2023-01-28T05:00:54;14.15;;;11.98;;
21786;SDS011;11055;50.870;4.316;2023-01-28T05:03:23;15.80;;;12.02;;
21786;SDS011;11055;50.870;4.316;2023-01-28T05:05:49;13.75;;;11.25;;
21786;SDS011;11055;50.870;4.316;2023-01-28T05:08:16;17.52;;;11.77;;
21786;SDS011;11055;50.870;4.316;2023-01-28T05:10:41;14.13;;;11.30;;
21786;SDS011;11055;50.870;4.316;2023-01-28T05:13:07;13.57;;;11.50;;
21786;SDS011;11055;50.870;4.316;2023-01-28T05:15:33;14.75;;;11.55;;
21786;SDS011;11055;50.870;4.316;2023-01-28T05:17:59;14.18;;;11.40;;
21786;SDS011;11055;50.870;4.316;2023-01-28T05:20:25;13.13;;;10.95;;
21786;SDS011;11055;50.870;4.316;2023-01-28T05:22:51;15.68;;;12.95;;
21786;SDS011;11055;50.870;4.316;2023-01-28T05:25:16;13.98;;;11.20;;
21786;SDS011;11055;50.870;4.316;2023-01-28T05:27:42;13.07;;;11.15;;
21786;SDS011;11055;50.870;4.316;2023-01-28T05:30:08;12.63;;;10.85;;
21786;SDS011;11055;50.870;4.316;2023-01-28T05:32:34;12.85;;;10.82;;
21786;SDS011;11055;50.870;4.316;2023-01-28T05:35:00;13.23;;;11.25;;
21786;SDS011;11055;50.870;4.316;2023-01-28T05:37:26;17.50;;;11.45;;
21786;SDS011;11055;50.870;4.316;2023-01-28T05:39:51;11.98;;;9.98;;
21786;SDS011;11055;50.870;4.316;2023-01-28T05:42:17;12.40;;;10.23;;
21786;SDS011;11055;50.870;4.316;2023-01-28T05:44:44;13.38;;;10.85;;
21786;SDS011;11055;50.870;4.316;2023-01-28T05:47:10;13.60;;;10.68;;
21786;SDS011;11055;50.870;4.316;2023-01-28T05:49:36;11.93;;;10.48;;
21786;SDS011;11055;50.870;4.316;2023-01-28T05:52:02;12.77;;;10.45;;
21786;SDS011;11055;50.870;4.316;2023-01-28T05:54:27;12.82;;;10.57;;
21786;SDS011;11055;50.870;4.316;2023-01-28T05:56:53;12.90;;;10.38;;
21786;SDS011;11055;50.870;4.316;2023-01-28T05:59:19;10.77;;;9.68;;
21786;SDS011;11055;50.870;4.316;2023-01-28T06:01:44;11.55;;;9.98;;
21786;SDS011;11055;50.870;4.316;2023-01-28T06:04:10;14.70;;;10.88;;
21786;SDS011;11055;50.870;4.316;2023-01-28T06:06:35;13.48;;;11.27;;
21786;SDS011;11055;50.870;4.316;2023-01-28T06:09:01;12.63;;;10.63;;
21786;SDS011;11055;50.870;4.316;2023-01-28T06:11:27;11.77;;;9.98;;
21786;SDS011;11055;50.870;4.316;2023-01-28T06:13:53;10.73;;;9.48;;
21786;SDS011;11055;50.870;4.316;2023-01-28T06:16:18;11.85;;;10.57;;
21786;SDS011;11055;50.870;4.316;2023-01-28T06:18:44;12.55;;;10.38;;
21786;SDS011;11055;50.870;4.316;2023-01-28T06:21:10;12.52;;;10.95;;
21786;SDS011;11055;50.870;4.316;2023-01-28T06:23:35;13.80;;;11.23;;
21786;SDS011;11055;50.870;4.316;2023-01-28T06:26:01;11.90;;;10.00;;
21786;SDS011;11055;50.870;4.316;2023-01-28T06:28:27;12.05;;;10.40;;
21786;SDS011;11055;50.870;4.316;2023-01-28T06:30:53;10.93;;;9.70;;
21786;SDS011;11055;50.870;4.316;2023-01-28T06:33:19;12.32;;;10.65;;
21786;SDS011;11055;50.870;4.316;2023-01-28T06:35:45;12.32;;;11.02;;
21786;SDS011;11055;50.870;4.316;2023-01-28T06:38:11;12.20;;;9.50;;
21786;SDS011;11055;50.870;4.316;2023-01-28T06:40:37;11.57;;;9.77;;
21786;SDS011;11055;50.870;4.316;2023-01-28T06:43:03;10.50;;;9.15;;
21786;SDS011;11055;50.870;4.316;2023-01-28T06:45:30;11.30;;;9.35;;
21786;SDS011;11055;50.870;4.316;2023-01-28T06:47:55;11.00;;;9.45;;
21786;SDS011;11055;50.870;4.316;2023-01-28T06:50:21;12.15;;;10.60;;
21786;SDS011;11055;50.870;4.316;2023-01-28T06:52:47;10.63;;;9.55;;
21786;SDS011;11055;50.870;4.316;2023-01-28T06:55:13;11.95;;;10.57;;
21786;SDS011;11055;50.870;4.316;2023-01-28T06:57:39;11.52;;;10.32;;
21786;SDS011;11055;50.870;4.316;2023-01-28T07:00:06;11.77;;;9.52;;
21786;SDS011;11055;50.870;4.316;2023-01-28T07:02:34;12.30;;;10.13;;
21786;SDS011;11055;50.870;4.316;2023-01-28T07:05:03;13.18;;;11.05;;
21786;SDS011;11055;50.870;4.316;2023-01-28T07:07:29;11.63;;;9.82;;
21786;SDS011;11055;50.870;4.316;2023-01-28T07:09:55;11.93;;;10.60;;
21786;SDS011;11055;50.870;4.316;2023-01-28T07:12:21;13.10;;;10.35;;
21786;SDS011;11055;50.870;4.316;2023-01-28T07:14:46;13.05;;;10.73;;
21786;SDS011;11055;50.870;4.316;2023-01-28T07:17:12;12.90;;;10.25;;
21786;SDS011;11055;50.870;4.316;2023-01-28T07:19:38;11.88;;;10.52;;
21786;SDS011;11055;50.870;4.316;2023-01-28T07:22:03;12.23;;;10.77;;
21786;SDS011;11055;50.870;4.316;2023-01-28T07:24:29;12.38;;;10.85;;
21786;SDS011;11055;50.870;4.316;2023-01-28T07:26:55;13.35;;;11.30;;
21786;SDS011;11055;50.870;4.316;2023-01-28T07:29:21;12.48;;;10.73;;
21786;SDS011;11055;50.870;4.316;2023-01-28T07:31:46;12.70;;;11.07;;
21786;SDS011;11055;50.870;4.316;2023-01-28T07:34:12;12.00;;;10.10;;
21786;SDS011;11055;50.870;4.316;2023-01-28T07:36:38;11.95;;;10.23;;
21786;SDS011;11055;50.870;4.316;2023-01-28T07:39:04;14.05;;;10.23;;
21786;SDS011;11055;50.870;4.316;2023-01-28T07:41:31;13.45;;;11.43;;
21786;SDS011;11055;50.870;4.316;2023-01-28T07:43:57;12.13;;;10.82;;
21786;SDS011;11055;50.870;4.316;2023-01-28T07:46:23;15.27;;;10.55;;
21786;SDS011;11055;50.870;4.316;2023-01-28T07:48:48;13.60;;;11.40;;
21786;SDS011;11055;50.870;4.316;2023-01-28T07:51:14;12.88;;;10.93;;
21786;SDS011;11055;50.870;4.316;2023-01-28T07:53:40;13.90;;;11.30;;
21786;SDS011;11055;50.870;4.316;2023-01-28T07:56:05;13.25;;;11.25;;
21786;SDS011;11055;50.870;4.316;2023-01-28T07:58:31;12.00;;;10.40;;
21786;SDS011;11055;50.870;4.316;2023-01-28T08:00:58;14.88;;;10.63;;
21786;SDS011;11055;50.870;4.316;2023-01-28T08:03:25;12.90;;;11.13;;
21786;SDS011;11055;50.870;4.316;2023-01-28T08:05:52;12.77;;;10.98;;
21786;SDS011;11055;50.870;4.316;2023-01-28T08:08:19;12.65;;;11.00;;
21786;SDS011;11055;50.870;4.316;2023-01-28T08:10:46;12.80;;;11.32;;
21786;SDS011;11055;50.870;4.316;2023-01-28T08:13:12;13.00;;;10.93;;
21786;SDS011;11055;50.870;4.316;2023-01-28T08:15:39;12.05;;;10.68;;
21786;SDS011;11055;50.870;4.316;2023-01-28T08:18:05;14.13;;;11.25;;
21786;SDS011;11055;50.870;4.316;2023-01-28T08:20:32;13.43;;;11.43;;
21786;SDS011;11055;50.870;4.316;2023-01-28T08:23:08;16.50;;;11.85;;
21786;SDS011;11055;50.870;4.316;2023-01-28T08:25:40;17.45;;;14.40;;
21786;SDS011;11055;50.870;4.316;2023-01-28T08:28:05;16.58;;;13.30;;
21786;SDS011;11055;50.870;4.316;2023-01-28T08:30:32;16.10;;;12.90;;
21786;SDS011;11055;50.870;4.316;2023-01-28T08:32:58;15.77;;;12.98;;
21786;SDS011;11055;50.870;4.316;2023-01-28T08:35:24;17.02;;;13.68;;
21786;SDS011;11055;50.870;4.316;2023-01-28T08:37:51;17.08;;;13.40;;
21786;SDS011;11055;50.870;4.316;2023-01-28T08:40:17;17.80;;;14.75;;
21786;SDS011;11055;50.870;4.316;2023-01-28T08:42:46;16.10;;;12.88;;
21786;SDS011;11055;50.870;4.316;2023-01-28T08:45:13;17.33;;;14.13;;
21786;SDS011;11055;50.870;4.316;2023-01-28T08:47:55;17.10;;;13.48;;
21786;SDS011;11055;50.870;4.316;2023-01-28T08:50:29;18.35;;;14.48;;
21786;SDS011;11055;50.870;4.316;2023-01-28T08:52:58;18.48;;;14.15;;
21786;SDS011;11055;50.870;4.316;2023-01-28T08:55:25;17.80;;;14.48;;
21786;SDS011;11055;50.870;4.316;2023-01-28T08:57:52;18.58;;;13.68;;
21786;SDS011;11055;50.870;4.316;2023-01-28T09:00:18;18.73;;;14.98;;
21786;SDS011;11055;50.870;4.316;2023-01-28T09:02:45;20.33;;;14.70;;
21786;SDS011;11055;50.870;4.316;2023-01-28T09:05:15;21.73;;;16.77;;
21786;SDS011;11055;50.870;4.316;2023-01-28T09:07:41;19.27;;;15.70;;
21786;SDS011;11055;50.870;4.316;2023-01-28T09:10:07;20.02;;;15.38;;
21786;SDS011;11055;50.870;4.316;2023-01-28T09:12:33;20.65;;;15.27;;
21786;SDS011;11055;50.870;4.316;2023-01-28T09:14:59;20.63;;;15.88;;
21786;SDS011;11055;50.870;4.316;2023-01-28T09:17:25;18.80;;;15.35;;
21786;SDS011;11055;50.870;4.316;2023-01-28T09:19:51;19.33;;;14.85;;
21786;SDS011;11055;50.870;4.316;2023-01-28T09:22:16;21.10;;;16.20;;
21786;SDS011;11055;50.870;4.316;2023-01-28T09:24:42;21.45;;;15.77;;
21786;SDS011;11055;50.870;4.316;2023-01-28T09:27:08;19.02;;;15.52;;
21786;SDS011;11055;50.870;4.316;2023-01-28T09:29:34;23.52;;;16.10;;
21786;SDS011;11055;50.870;4.316;2023-01-28T09:31:59;20.92;;;15.93;;
21786;SDS011;11055;50.870;4.316;2023-01-28T09:34:25;20.63;;;15.77;;
21786;SDS011;11055;50.870;4.316;2023-01-28T09:36:51;22.65;;;16.95;;
21786;SDS011;11055;50.870;4.316;2023-01-28T09:39:17;23.67;;;18.23;;
21786;SDS011;11055;50.870;4.316;2023-01-28T09:44:33;33.40;;;22.80;;
21786;SDS011;11055;50.870;4.316;2023-01-28T09:47:34;25.07;;;18.53;;
21786;SDS011;11055;50.870;4.316;2023-01-28T09:50:10;22.75;;;17.85;;
21786;SDS011;11055;50.870;4.316;2023-01-28T09:52:41;26.65;;;18.92;;
21786;SDS011;11055;50.870;4.316;2023-01-28T09:55:13;27.10;;;20.02;;
21786;SDS011;11055;50.870;4.316;2023-01-28T09:57:49;24.85;;;18.40;;
21786;SDS011;11055;50.870;4.316;2023-01-28T10:00:18;23.02;;;17.77;;
21786;SDS011;11055;50.870;4.316;2023-01-28T10:03:03;23.58;;;17.45;;
21786;SDS011;11055;50.870;4.316;2023-01-28T10:05:35;21.58;;;15.50;;
21786;SDS011;11055;50.870;4.316;2023-01-28T10:10:43;22.48;;;16.75;;
21786;SDS011;11055;50.870;4.316;2023-01-28T10:13:58;24.05;;;17.48;;
21786;SDS011;11055;50.870;4.316;2023-01-28T10:16:21;27.85;;;19.23;;
21786;SDS011;11055;50.870;4.316;2023-01-28T10:21:57;22.80;;;16.70;;
21786;SDS011;11055;50.870;4.316;2023-01-28T10:27:09;22.02;;;16.35;;
21786;SDS011;11055;50.870;4.316;2023-01-28T10:29:40;19.58;;;15.35;;
21786;SDS011;11055;50.870;4.316;2023-01-28T10:32:25;23.50;;;15.70;;
21786;SDS011;11055;50.870;4.316;2023-01-28T10:34:58;19.27;;;14.40;;
21786;SDS011;11055;50.870;4.316;2023-01-28T10:37:25;19.88;;;15.15;;
21786;SDS011;11055;50.870;4.316;2023-01-28T10:39:56;21.25;;;16.45;;
21786;SDS011;11055;50.870;4.316;2023-01-28T10:42:33;22.35;;;15.27;;
21786;SDS011;11055;50.870;4.316;2023-01-28T10:45:24;22.27;;;16.83;;
21786;SDS011;11055;50.870;4.316;2023-01-28T10:47:55;20.15;;;15.75;;
21786;SDS011;11055;50.870;4.316;2023-01-28T10:50:53;20.08;;;15.32;;
21786;SDS011;11055;50.870;4.316;2023-01-28T10:53:35;22.23;;;16.67;;
21786;SDS011;11055;50.870;4.316;2023-01-28T10:56:02;24.27;;;17.85;;
21786;SDS011;11055;50.870;4.316;2023-01-28T10:58:33;21.55;;;16.60;;
21786;SDS011;11055;50.870;4.316;2023-01-28T11:01:01;20.52;;;16.23;;
21786;SDS011;11055;50.870;4.316;2023-01-28T11:03:30;20.10;;;15.23;;
21786;SDS011;11055;50.870;4.316;2023-01-28T11:05:57;21.08;;;16.38;;
21786;SDS011;11055;50.870;4.316;2023-01-28T11:08:24;18.85;;;14.30;;
21786;SDS011;11055;50.870;4.316;2023-01-28T11:10:52;21.25;;;16.25;;
21786;SDS011;11055;50.870;4.316;2023-01-28T11:13:20;19.23;;;14.85;;
21786;SDS011;11055;50.870;4.316;2023-01-28T11:15:52;20.30;;;15.30;;
21786;SDS011;11055;50.870;4.316;2023-01-28T11:18:24;17.77;;;13.60;;
21786;SDS011;11055;50.870;4.316;2023-01-28T11:21:02;20.25;;;14.05;;
21786;SDS011;11055;50.870;4.316;2023-01-28T11:23:32;20.60;;;14.80;;
21786;SDS011;11055;50.870;4.316;2023-01-28T11:26:05;23.23;;;15.57;;
21786;SDS011;11055;50.870;4.316;2023-01-28T11:28:32;17.98;;;14.15;;
21786;SDS011;11055;50.870;4.316;2023-01-28T11:30:59;21.15;;;15.98;;
21786;SDS011;11055;50.870;4.316;2023-01-28T11:33:37;19.17;;;14.38;;
21786;SDS011;11055;50.870;4.316;2023-01-28T11:36:14;21.52;;;15.48;;
21786;SDS011;11055;50.870;4.316;2023-01-28T11:38:52;21.30;;;15.93;;
21786;SDS011;11055;50.870;4.316;2023-01-28T11:44:34;20.40;;;15.05;;
21786;SDS011;11055;50.870;4.316;2023-01-28T11:58:17;18.55;;;13.65;;
21786;SDS011;11055;50.870;4.316;2023-01-28T12:12:03;18.50;;;13.05;;
21786;SDS011;11055;50.870;4.316;2023-01-28T12:36:47;15.60;;;12.95;;
21786;SDS011;11055;50.870;4.316;2023-01-28T12:41:53;16.75;;;13.02;;
21786;SDS011;11055;50.870;4.316;2023-01-28T12:44:42;17.48;;;13.45;;
21786;SDS011;11055;50.870;4.316;2023-01-28T12:47:18;17.27;;;13.25;;
21786;SDS011;11055;50.870;4.316;2023-01-28T12:49:50;17.42;;;13.07;;
21786;SDS011;11055;50.870;4.316;2023-01-28T12:52:26;15.70;;;12.70;;
21786;SDS011;11055;50.870;4.316;2023-01-28T12:55:15;20.08;;;15.10;;
21786;SDS011;11055;50.870;4.316;2023-01-28T12:58:06;18.23;;;12.82;;
21786;SDS011;11055;50.870;4.316;2023-01-28T13:00:49;16.00;;;12.52;;
21786;SDS011;11055;50.870;4.316;2023-01-28T13:06:18;14.82;;;11.90;;
21786;SDS011;11055;50.870;4.316;2023-01-28T13:08:59;22.27;;;13.30;;
21786;SDS011;11055;50.870;4.316;2023-01-28T13:11:33;20.48;;;13.70;;
21786;SDS011;11055;50.870;4.316;2023-01-28T13:14:00;16.55;;;13.07;;
21786;SDS011;11055;50.870;4.316;2023-01-28T13:16:27;16.45;;;12.88;;
21786;SDS011;11055;50.870;4.316;2023-01-28T13:19:02;16.27;;;12.57;;
21786;SDS011;11055;50.870;4.316;2023-01-28T13:21:33;14.25;;;10.80;;
21786;SDS011;11055;50.870;4.316;2023-01-28T13:26:35;14.57;;;11.52;;
21786;SDS011;11055;50.870;4.316;2023-01-28T13:31:38;14.52;;;11.70;;
21786;SDS011;11055;50.870;4.316;2023-01-28T13:40:25;16.48;;;12.27;;
21786;SDS011;11055;50.870;4.316;2023-01-28T13:43:05;16.02;;;12.43;;
21786;SDS011;11055;50.870;4.316;2023-01-28T13:45:55;15.43;;;12.02;;
21786;SDS011;11055;50.870;4.316;2023-01-28T13:51:00;15.23;;;12.68;;
21786;SDS011;11055;50.870;4.316;2023-01-28T13:53:44;16.38;;;12.70;;
21786;SDS011;11055;50.870;4.316;2023-01-28T14:12:46;15.13;;;11.98;;
21786;SDS011;11055;50.870;4.316;2023-01-28T14:20:49;14.95;;;11.55;;
21786;SDS011;11055;50.870;4.316;2023-01-28T14:23:17;16.05;;;12.90;;
21786;SDS011;11055;50.870;4.316;2023-01-28T14:25:56;14.50;;;11.50;;
21786;SDS011;11055;50.870;4.316;2023-01-28T14:31:23;16.05;;;12.02;;
21786;SDS011;11055;50.870;4.316;2023-01-28T14:33:54;17.08;;;12.45;;
21786;SDS011;11055;50.870;4.316;2023-01-28T14:36:37;15.88;;;12.55;;
21786;SDS011;11055;50.870;4.316;2023-01-28T14:39:05;14.73;;;11.65;;
21786;SDS011;11055;50.870;4.316;2023-01-28T14:41:44;17.30;;;13.13;;
21786;SDS011;11055;50.870;4.316;2023-01-28T14:44:20;17.30;;;13.35;;
21786;SDS011;11055;50.870;4.316;2023-01-28T14:47:20;17.95;;;13.48;;
21786;SDS011;11055;50.870;4.316;2023-01-28T14:55:32;15.38;;;12.88;;
21786;SDS011;11055;50.870;4.316;2023-01-28T14:58:18;17.33;;;13.52;;
21786;SDS011;11055;50.870;4.316;2023-01-28T15:00:53;16.00;;;12.45;;
21786;SDS011;11055;50.870;4.316;2023-01-28T15:03:21;17.73;;;13.10;;
21786;SDS011;11055;50.870;4.316;2023-01-28T15:05:47;17.58;;;13.50;;
21786;SDS011;11055;50.870;4.316;2023-01-28T15:08:20;19.00;;;14.55;;
21786;SDS011;11055;50.870;4.316;2023-01-28T15:10:46;18.98;;;14.73;;
21786;SDS011;11055;50.870;4.316;2023-01-28T15:13:22;18.77;;;14.45;;
21786;SDS011;11055;50.870;4.316;2023-01-28T15:15:52;19.35;;;14.10;;
21786;SDS011;11055;50.870;4.316;2023-01-28T15:18:34;18.77;;;15.70;;
21786;SDS011;11055;50.870;4.316;2023-01-28T15:21:04;20.60;;;14.97;;
21786;SDS011;11055;50.870;4.316;2023-01-28T15:23:32;22.40;;;14.93;;
21786;SDS011;11055;50.870;4.316;2023-01-28T15:26:06;18.85;;;15.00;;
21786;SDS011;11055;50.870;4.316;2023-01-28T15:28:38;19.02;;;14.32;;
21786;SDS011;11055;50.870;4.316;2023-01-28T15:31:04;20.52;;;15.88;;
21786;SDS011;11055;50.870;4.316;2023-01-28T15:33:30;18.83;;;14.40;;
21786;SDS011;11055;50.870;4.316;2023-01-28T15:35:56;20.17;;;15.07;;
21786;SDS011;11055;50.870;4.316;2023-01-28T15:38:24;18.55;;;14.95;;
21786;SDS011;11055;50.870;4.316;2023-01-28T15:43:30;21.23;;;16.25;;
21786;SDS011;11055;50.870;4.316;2023-01-28T15:46:01;19.38;;;15.07;;
21786;SDS011;11055;50.870;4.316;2023-01-28T15:48:31;20.13;;;15.02;;
21786;SDS011;11055;50.870;4.316;2023-01-28T15:51:02;18.85;;;14.95;;
21786;SDS011;11055;50.870;4.316;2023-01-28T15:53:44;19.77;;;15.20;;
21786;SDS011;11055;50.870;4.316;2023-01-28T15:56:14;20.15;;;14.77;;
21786;SDS011;11055;50.870;4.316;2023-01-28T15:58:40;19.33;;;14.18;;
21786;SDS011;11055;50.870;4.316;2023-01-28T16:03:32;19.02;;;14.05;;
21786;SDS011;11055;50.870;4.316;2023-01-28T16:06:01;20.52;;;14.90;;
21786;SDS011;11055;50.870;4.316;2023-01-28T16:08:40;21.45;;;15.55;;
21786;SDS011;11055;50.870;4.316;2023-01-28T16:11:10;20.05;;;15.88;;
21786;SDS011;11055;50.870;4.316;2023-01-28T16:13:40;20.25;;;15.52;;
21786;SDS011;11055;50.870;4.316;2023-01-28T16:16:08;19.70;;;15.40;;
21786;SDS011;11055;50.870;4.316;2023-01-28T16:18:41;21.75;;;15.48;;
21786;SDS011;11055;50.870;4.316;2023-01-28T16:21:17;22.40;;;15.02;;
21786;SDS011;11055;50.870;4.316;2023-01-28T16:23:49;18.80;;;14.98;;
21786;SDS011;11055;50.870;4.316;2023-01-28T16:26:31;21.08;;;15.13;;
21786;SDS011;11055;50.870;4.316;2023-01-28T16:29:10;17.15;;;13.07;;
21786;SDS011;11055;50.870;4.316;2023-01-28T16:31:40;20.58;;;16.83;;
21786;SDS011;11055;50.870;4.316;2023-01-28T16:34:07;19.58;;;14.65;;
21786;SDS011;11055;50.870;4.316;2023-01-28T16:36:34;18.88;;;14.10;;
21786;SDS011;11055;50.870;4.316;2023-01-28T16:39:00;27.52;;;14.80;;
21786;SDS011;11055;50.870;4.316;2023-01-28T16:41:26;22.90;;;13.77;;
21786;SDS011;11055;50.870;4.316;2023-01-28T16:43:56;21.65;;;14.05;;
21786;SDS011;11055;50.870;4.316;2023-01-28T16:46:25;26.48;;;16.08;;
21786;SDS011;11055;50.870;4.316;2023-01-28T16:48:51;20.90;;;14.02;;
21786;SDS011;11055;50.870;4.316;2023-01-28T16:51:17;20.63;;;13.75;;
21786;SDS011;11055;50.870;4.316;2023-01-28T16:53:44;17.20;;;13.10;;
21786;SDS011;11055;50.870;4.316;2023-01-28T16:56:21;18.33;;;13.70;;
21786;SDS011;11055;50.870;4.316;2023-01-28T16:58:49;17.92;;;12.48;;
21786;SDS011;11055;50.870;4.316;2023-01-28T17:01:15;15.57;;;11.85;;
21786;SDS011;11055;50.870;4.316;2023-01-28T17:03:41;16.50;;;12.15;;
21786;SDS011;11055;50.870;4.316;2023-01-28T17:06:07;17.63;;;13.52;;